Air Navigation Services of Czech Republic
Airport: LKNA Updated:  04.06.2020 12:00:26  UTC
 METAR LKNA 04.06. 12:00 ...
METAR LKNA 041200Z 13011KT 9999 FEW040 SCT080 BKN100 19/11 Q0998 NOSIG RMK BLU BLU=
 TAF LKNA 04.06. 11:00 ...
TAF LKNA 041100Z 0412/0512 14010KT 9999 SCT040      TEMPO 0412/0422 7000 SHRA BKN030TCU      PROB40 TEMPO 0413/0419 14014G24KT 5000 TSRA BKN030CB      BECMG 0417/0419 31010KT      TEMPO 0500/0512 7000 RA BKN025=